Szafir — 5BFC3 — position and weather

sailwx.info

Track history (hours):
 
Tides and Currents Weather Stations Pressure Air Temp Water Temp Dewpoint Dewpoint Depression Visibility Wind Speed Wind Dir Waves Ship Positions

Szafir

Last reported at 2016-Feb-07 10:14 UTC. Time now 2016-Feb-08 04:11 UTC.
Position N 53°46' E 004°45'.

Length 113 m; draft 6.8 m.

Type: Ship. MMSI: 209366000.

Date/timePositionNaut miles runAvg speedWind from/ knotsBaromVisibWave heightAir tempDewpointWater temp
2016-Feb-07 10:14N 53°46' E 004°45'9 5.3
2016-Feb-07 08:32N 53°54' E 004°51'5 4.8
2016-Feb-07 07:33N 53°59' E 004°54'4 4.4
2016-Feb-07 06:34N 54°03' E 004°56'3 3.4
2016-Feb-07 05:33N 54°06' E 004°59'3 2.6
2016-Feb-07 04:33N 54°08' E 005°01'3 2.5
2016-Feb-07 03:33N 54°10' E 005°03'3 3.0
2016-Feb-07 02:34N 54°13' E 005°05'3 3.2
2016-Feb-07 01:34N 54°16' E 005°08'3 3.2
2016-Feb-07 00:32N 54°19' E 005°11'4 3.3
2016-Feb-06 23:26N 54°22' E 005°14'3 3.2
2016-Feb-06 22:33N 54°24' E 005°17'21 2.9
2016-Feb-06 15:19N 54°41' E 005°36'3 3.3
2016-Feb-06 14:32N 54°44' E 005°38'4 3.6
2016-Feb-06 13:33N 54°47' E 005°41'242 4.7
2016-Feb-04 10:34N 57°48' E 010°30'9 9.3
2016-Feb-04 09:33N 57°47' E 010°47'1111.5
2016-Feb-04 08:33N 57°39' E 011°02'1211.8
2016-Feb-04 07:33N 57°31' E 011°18'1110.9
2016-Feb-04 06:33N 57°22' E 011°30'1111.0
2016-Feb-04 05:33N 57°12' E 011°36'1110.9
2016-Feb-04 04:33N 57°02' E 011°44'1010.0
2016-Feb-04 03:33N 56°52' E 011°51'10 9.9
2016-Feb-04 02:33N 56°42' E 011°51'8510.1
2016-Feb-03 18:09N 55°22' E 011°03'7 8.9
2016-Feb-03 17:24N 55°16' E 011°05'8 9.1
2016-Feb-03 16:33N 55°08' E 011°03'1010.2
2016-Feb-03 15:33N 54°58' E 010°60'9 9.0
2016-Feb-03 14:33N 54°50' E 010°52'9 9.1
2016-Feb-03 13:33N 54°41' E 010°56'9 9.4
2016-Feb-03 12:33N 54°36' E 011°10'8 8.0
2016-Feb-03 11:33N 54°33' E 011°22'8 8.0
2016-Feb-03 10:33N 54°30' E 011°35'9 8.5
2016-Feb-03 09:33N 54°27' E 011°49'9 8.8
2016-Feb-03 08:33N 54°27' E 012°04'8 8.2
2016-Feb-03 07:34N 54°33' E 012°13'9 8.6
2016-Feb-03 06:33N 54°40' E 012°23'9 8.7
2016-Feb-03 05:33N 54°44' E 012°35'45 7.2
2016-Feb-02 23:15N 54°43' E 013°54'28 9.6
2016-Feb-02 20:17N 54°40' E 014°43'7 9.8
2016-Feb-02 19:33N 54°41' E 014°55'10 9.6
2016-Feb-02 18:30N 54°43' E 015°12'96 8.0
2016-Feb-02 06:32N 54°56' E 017°57'6 5.7
2016-Feb-02 05:33N 54°56' E 018°07'5 5.0
2016-Feb-02 04:33N 54°57' E 018°16'5 5.2
2016-Feb-02 03:34N 54°57' E 018°25'5 5.1
2016-Feb-02 02:33N 54°57' E 018°33'5 5.3
2016-Feb-02 01:33N 54°54' E 018°41'7 7.2
2016-Feb-02 00:33N 54°49' E 018°51'8 8.1
2016-Feb-01 23:33N 54°42' E 018°58'1110.6
2016-Feb-01 22:33N 54°33' E 018°50'9 9.4
2016-Feb-01 21:33N 54°32' E 018°34'1 1.2
2016-Feb-01 20:28N 54°32' E 018°32'0 0.0
2016-Feb-01 19:31N 54°32' E 018°32'0 0.0
2016-Feb-01 18:31N 54°32' E 018°32'0 0.0
2016-Feb-01 17:31N 54°32' E 018°32'0 0.0
2016-Feb-01 16:31N 54°32' E 018°32'0 0.0
2016-Feb-01 15:31N 54°32' E 018°32'0 0.0
2016-Feb-01 14:31N 54°32' E 018°32'0 0.0
2016-Feb-01 13:31N 54°32' E 018°32'0 0.0
2016-Feb-01 12:31N 54°32' E 018°32'0 0.0
2016-Feb-01 11:31N 54°32' E 018°32'0 0.0
2016-Feb-01 10:31N 54°32' E 018°32'0 0.0
2016-Feb-01 09:31N 54°32' E 018°32'0 0.0
2016-Feb-01 08:31N 54°32' E 018°32'0 0.0
2016-Feb-01 07:31N 54°32' E 018°32'0 0.0
2016-Feb-01 06:31N 54°32' E 018°32'0 0.0
2016-Feb-01 05:31N 54°32' E 018°32'0 0.0
2016-Feb-01 04:31N 54°32' E 018°32'0 0.0
2016-Feb-01 03:31N 54°32' E 018°32'0 0.0
2016-Feb-01 02:31N 54°32' E 018°32'0 0.0
2016-Feb-01 01:31N 54°32' E 018°32'0 0.0
2016-Feb-01 00:31N 54°32' E 018°32'0 0.0
2016-Jan-31 23:31N 54°32' E 018°32'0 0.0
2016-Jan-31 22:31N 54°32' E 018°32'0 0.0
2016-Jan-31 21:31N 54°32' E 018°32'0 0.0
2016-Jan-31 20:31N 54°32' E 018°32'0 0.0
2016-Jan-31 19:33N 54°32' E 018°32'4 3.8
2016-Jan-31 18:33N 54°32' E 018°38'9 9.5
2016-Jan-31 17:33N 54°36' E 018°53'1110.9
2016-Jan-31 16:33N 54°43' E 019°08'1010.3
2016-Jan-31 15:33N 54°49' E 019°22'11 7.6
2016-Jan-31 14:06N 54°60' E 019°28'307 7.2
2016-Jan-29 19:33N 59°38' E 023°27'1210.1
2016-Jan-29 18:20N 59°41' E 023°50'2210.5
2016-Jan-29 16:14N 59°45' E 024°34'6 8.7
2016-Jan-29 15:33N 59°41' E 024°42'  
Track history (hours):
 
Tides and Currents Weather Stations Pressure Air Temp Water Temp Dewpoint Dewpoint Depression Visibility Wind Speed Wind Dir Waves Ship Positions

Szafir

Last reported at 2016-Feb-07 10:14 UTC. Time now 2016-Feb-08 04:11 UTC.
Position N 53°46' E 004°45'.

Length 113 m; draft 6.8 m.

Type: Ship. MMSI: 209366000.

Date/timePositionNaut miles runAvg speedWind from/ knotsBaromVisibWave heightAir tempDewpointWater temp
2016-Feb-07 10:14N 53°46' E 004°45'9 5.3
2016-Feb-07 08:32N 53°54' E 004°51'5 4.8
2016-Feb-07 07:33N 53°59' E 004°54'4 4.4
2016-Feb-07 06:34N 54°03' E 004°56'3 3.4
2016-Feb-07 05:33N 54°06' E 004°59'3 2.6
2016-Feb-07 04:33N 54°08' E 005°01'3 2.5
2016-Feb-07 03:33N 54°10' E 005°03'3 3.0
2016-Feb-07 02:34N 54°13' E 005°05'3 3.2
2016-Feb-07 01:34N 54°16' E 005°08'3 3.2
2016-Feb-07 00:32N 54°19' E 005°11'4 3.3
2016-Feb-06 23:26N 54°22' E 005°14'3 3.2
2016-Feb-06 22:33N 54°24' E 005°17'21 2.9
2016-Feb-06 15:19N 54°41' E 005°36'3 3.3
2016-Feb-06 14:32N 54°44' E 005°38'4 3.6
2016-Feb-06 13:33N 54°47' E 005°41'242 4.7
2016-Feb-04 10:34N 57°48' E 010°30'9 9.3
2016-Feb-04 09:33N 57°47' E 010°47'1111.5
2016-Feb-04 08:33N 57°39' E 011°02'1211.8
2016-Feb-04 07:33N 57°31' E 011°18'1110.9
2016-Feb-04 06:33N 57°22' E 011°30'1111.0
2016-Feb-04 05:33N 57°12' E 011°36'1110.9
2016-Feb-04 04:33N 57°02' E 011°44'1010.0
2016-Feb-04 03:33N 56°52' E 011°51'10 9.9
2016-Feb-04 02:33N 56°42' E 011°51'8510.1
2016-Feb-03 18:09N 55°22' E 011°03'7 8.9
2016-Feb-03 17:24N 55°16' E 011°05'8 9.1
2016-Feb-03 16:33N 55°08' E 011°03'1010.2
2016-Feb-03 15:33N 54°58' E 010°60'9 9.0
2016-Feb-03 14:33N 54°50' E 010°52'9 9.1
2016-Feb-03 13:33N 54°41' E 010°56'9 9.4
2016-Feb-03 12:33N 54°36' E 011°10'8 8.0
2016-Feb-03 11:33N 54°33' E 011°22'8 8.0
2016-Feb-03 10:33N 54°30' E 011°35'9 8.5
2016-Feb-03 09:33N 54°27' E 011°49'9 8.8
2016-Feb-03 08:33N 54°27' E 012°04'8 8.2
2016-Feb-03 07:34N 54°33' E 012°13'9 8.6
2016-Feb-03 06:33N 54°40' E 012°23'9 8.7
2016-Feb-03 05:33N 54°44' E 012°35'45 7.2
2016-Feb-02 23:15N 54°43' E 013°54'28 9.6
2016-Feb-02 20:17N 54°40' E 014°43'7 9.8
2016-Feb-02 19:33N 54°41' E 014°55'10 9.6
2016-Feb-02 18:30N 54°43' E 015°12'96 8.0
2016-Feb-02 06:32N 54°56' E 017°57'6 5.7
2016-Feb-02 05:33N 54°56' E 018°07'5 5.0
2016-Feb-02 04:33N 54°57' E 018°16'5 5.2
2016-Feb-02 03:34N 54°57' E 018°25'5 5.1
2016-Feb-02 02:33N 54°57' E 018°33'5 5.3
2016-Feb-02 01:33N 54°54' E 018°41'7 7.2
2016-Feb-02 00:33N 54°49' E 018°51'8 8.1
2016-Feb-01 23:33N 54°42' E 018°58'1110.6
2016-Feb-01 22:33N 54°33' E 018°50'9 9.4
2016-Feb-01 21:33N 54°32' E 018°34'1 1.2
2016-Feb-01 20:28N 54°32' E 018°32'0 0.0
2016-Feb-01 19:31N 54°32' E 018°32'0 0.0
2016-Feb-01 18:31N 54°32' E 018°32'0 0.0
2016-Feb-01 17:31N 54°32' E 018°32'0 0.0
2016-Feb-01 16:31N 54°32' E 018°32'0 0.0
2016-Feb-01 15:31N 54°32' E 018°32'0 0.0
2016-Feb-01 14:31N 54°32' E 018°32'0 0.0
2016-Feb-01 13:31N 54°32' E 018°32'0 0.0
2016-Feb-01 12:31N 54°32' E 018°32'0 0.0
2016-Feb-01 11:31N 54°32' E 018°32'0 0.0
2016-Feb-01 10:31N 54°32' E 018°32'0 0.0
2016-Feb-01 09:31N 54°32' E 018°32'0 0.0
2016-Feb-01 08:31N 54°32' E 018°32'0 0.0
2016-Feb-01 07:31N 54°32' E 018°32'0 0.0
2016-Feb-01 06:31N 54°32' E 018°32'0 0.0
2016-Feb-01 05:31N 54°32' E 018°32'0 0.0
2016-Feb-01 04:31N 54°32' E 018°32'0 0.0
2016-Feb-01 03:31N 54°32' E 018°32'0 0.0
2016-Feb-01 02:31N 54°32' E 018°32'0 0.0
2016-Feb-01 01:31N 54°32' E 018°32'0 0.0
2016-Feb-01 00:31N 54°32' E 018°32'0 0.0
2016-Jan-31 23:31N 54°32' E 018°32'0 0.0
2016-Jan-31 22:31N 54°32' E 018°32'0 0.0
2016-Jan-31 21:31N 54°32' E 018°32'0 0.0
2016-Jan-31 20:31N 54°32' E 018°32'0 0.0
2016-Jan-31 19:33N 54°32' E 018°32'4 3.8
2016-Jan-31 18:33N 54°32' E 018°38'9 9.5
2016-Jan-31 17:33N 54°36' E 018°53'1110.9
2016-Jan-31 16:33N 54°43' E 019°08'1010.3
2016-Jan-31 15:33N 54°49' E 019°22'11 7.6
2016-Jan-31 14:06N 54°60' E 019°28'307 7.2
2016-Jan-29 19:33N 59°38' E 023°27'1210.1
2016-Jan-29 18:20N 59°41' E 023°50'2210.5
2016-Jan-29 16:14N 59°45' E 024°34'6 8.7
2016-Jan-29 15:33N 59°41' E 024°42'  

Dump ship's entire track history